Time;durP1;ratioP1;P1;durP2;ratioP2;P2;SDS_P1;SDS_P2;PMS_P1;PMS_P2;Temp;Humidity;BMP_temperature;BMP_pressure;BME280_temperature;BME280_humidity;BME280_pressure;Samples;Min_cycle;Max_cycle;Signal;HPM_P1;HPM_P2
2021/09/27 00:02:21;;;;;;;;;16.50;16.50;;;;;19.44;64.52;98765.88;4825997;28;102521;-90
2021/09/27 00:04:48;;;;;;;;;17.00;17.00;;;;;19.44;64.43;98760.38;4822661;28;102392;-90
2021/09/27 00:07:15;;;;;;;;;16.25;16.00;;;;;19.42;64.67;98762.50;4830292;28;103455;-91
2021/09/27 00:09:44;;;;;;;;;16.00;15.00;;;;;19.42;64.52;98759.75;4830371;28;109095;-91
2021/09/27 00:12:15;;;;;;;;;19.50;19.25;;;;;19.39;64.68;98757.53;4829964;28;102675;-91
2021/09/27 00:14:43;;;;;;;;;16.33;15.67;;;;;19.40;64.23;98755.63;4834276;28;105673;-91
2021/09/27 00:17:10;;;;;;;;;17.00;15.33;;;;;19.38;64.71;98755.88;4819321;28;104106;-91
2021/09/27 00:19:37;;;;;;;;;15.00;14.00;;;;;19.38;64.42;98760.53;4826433;28;104382;-91
2021/09/27 00:22:05;;;;;;;;;17.25;15.50;;;;;19.37;64.71;98754.22;4838072;28;102237;-91
2021/09/27 00:24:33;;;;;;;;;19.75;16.75;;;;;19.37;64.67;98756.94;4834898;28;102614;-90
2021/09/27 00:27:00;;;;;;;;;18.00;15.00;;;;;19.35;64.48;98756.38;4840929;28;104390;-90
2021/09/27 00:29:27;;;;;;;;;18.50;18.00;;;;;19.36;64.36;98757.22;4844389;28;105504;-91
2021/09/27 00:31:54;;;;;;;;;16.50;16.50;;;;;19.34;64.06;98754.72;4828923;28;104082;-90
2021/09/27 00:34:22;;;;;;;;;16.67;15.33;;;;;19.34;64.00;98754.72;4823636;28;103217;-91
2021/09/27 00:36:49;;;;;;;;;16.00;16.00;;;;;19.33;64.06;98757.72;4836304;28;102739;-90
2021/09/27 00:39:16;;;;;;;;;16.00;16.00;;;;;19.34;64.19;98751.16;4839273;28;104179;-91
2021/09/27 00:41:43;;;;;;;;;15.75;15.75;;;;;19.33;64.11;98758.53;4839052;28;102620;-90
2021/09/27 00:44:10;;;;;;;;;16.00;15.00;;;;;19.33;64.12;98754.97;4830329;28;102570;-90
2021/09/27 00:46:37;;;;;;;;;15.75;14.50;;;;;19.30;63.75;98764.53;4822565;28;104090;-91
2021/09/27 00:49:04;;;;;;;;;17.25;16.00;;;;;19.29;63.76;98762.88;4831155;28;104101;-91
2021/09/27 00:51:34;;;;;;;;;13.75;12.75;;;;;19.29;63.73;98753.81;4819727;28;102608;-90
2021/09/27 00:54:11;;;;;;;;;17.00;15.67;;;;;19.28;64.05;98758.47;4802649;28;105059;-90
2021/09/27 00:56:43;;;;;;;;;16.00;14.00;;;;;19.25;63.92;98748.03;4833471;28;102412;-91
2021/09/27 00:59:10;;;;;;;;;16.00;15.25;;;;;19.24;63.84;98754.56;4822120;28;104128;-90
2021/09/27 01:01:37;;;;;;;;;16.50;15.50;;;;;19.24;64.07;98765.53;4796311;28;102286;-90
2021/09/27 01:04:04;;;;;;;;;17.50;16.00;;;;;19.23;64.06;98763.88;4804060;28;103726;-90
2021/09/27 01:06:49;;;;;;;;;15.75;15.75;;;;;19.23;63.88;98763.88;4797716;28;102656;-90
2021/09/27 01:09:42;;;;;;;;;16.75;16.00;;;;;19.23;63.95;98758.41;4758214;28;109027;-90
2021/09/27 01:12:30;;;;;;;;;16.50;15.00;;;;;19.22;64.01;98751.28;4827729;28;103339;-90
2021/09/27 01:15:11;;;;;;;;;13.00;12.00;;;;;19.20;63.67;98758.91;4852347;28;102654;-90
2021/09/27 01:18:11;;;;;;;;;14.33;14.33;;;;;19.20;63.52;98747.13;4815385;28;103493;-91
2021/09/27 01:21:03;;;;;;;;;14.00;13.33;;;;;19.22;62.99;98750.44;4839203;28;108641;-91
2021/09/27 01:23:55;;;;;;;;;15.00;13.25;;;;;19.19;62.85;98746.28;4837156;28;102481;-90
2021/09/27 01:26:40;;;;;;;;;14.00;13.00;;;;;19.18;63.27;98741.91;4843684;28;102580;-89
2021/09/27 01:29:26;;;;;;;;;16.00;14.25;;;;;19.18;62.81;98741.91;4827855;28;103293;-90
2021/09/27 01:31:56;;;;;;;;;14.50;14.50;;;;;19.17;63.29;98737.50;4835074;28;109184;-90
2021/09/27 01:34:53;;;;;;;;;13.00;12.00;;;;;19.17;62.50;98742.97;4841097;28;102547;-90
2021/09/27 01:37:39;;;;;;;;;14.75;14.75;;;;;19.17;63.02;98729.28;4819871;28;104153;-90
2021/09/27 01:40:11;;;;;;;;;15.50;14.50;;;;;19.14;62.99;98737.97;4786039;28;103204;-90
2021/09/27 01:42:49;;;;;;;;;14.67;12.67;;;;;19.13;63.00;98744.56;4797248;28;104084;-90
2021/09/27 01:45:31;;;;;;;;;13.50;13.50;;;;;19.14;63.25;98735.25;4830321;28;103630;-90
2021/09/27 01:48:13;;;;;;;;;14.75;14.00;;;;;19.12;63.07;98745.66;4831687;28;102258;-91
2021/09/27 01:50:57;;;;;;;;;13.25;12.50;;;;;19.10;63.10;98742.31;4808290;28;105979;-90
2021/09/27 01:53:26;;;;;;;;;14.67;14.00;;;;;19.10;63.17;98743.16;4818370;28;108816;-90
2021/09/27 01:56:02;;;;;;;;;17.00;14.67;;;;;19.09;63.47;98736.00;4847682;28;102454;-91
2021/09/27 01:59:05;;;;;;;;;13.75;12.75;;;;;19.09;63.15;98740.69;4815258;28;103269;-90
2021/09/27 02:01:46;;;;;;;;;16.33;14.00;;;;;19.08;63.12;98739.00;4807268;29;102740;-90
2021/09/27 02:04:17;;;;;;;;;15.00;14.50;;;;;19.06;62.74;98736.50;4826103;28;104006;-90
2021/09/27 02:06:48;;;;;;;;;13.75;13.00;;;;;19.06;62.43;98731.03;4823794;28;102674;-91
2021/09/27 02:09:17;;;;;;;;;13.75;13.25;;;;;19.05;62.13;98739.50;4825896;28;103651;-90
2021/09/27 02:11:48;;;;;;;;;15.25;14.00;;;;;19.06;62.47;98736.50;4831105;28;102573;-90
2021/09/27 02:14:46;;;;;;;;;13.75;12.75;;;;;19.06;62.33;98735.69;4809369;28;108828;-90
2021/09/27 02:17:24;;;;;;;;;14.00;14.00;;;;;19.04;62.24;98726.91;4836698;28;102294;-90
2021/09/27 02:19:56;;;;;;;;;13.50;13.00;;;;;19.04;62.05;98727.72;4805264;28;102688;-90
2021/09/27 02:22:45;;;;;;;;;13.25;12.75;;;;;19.03;62.94;98737.03;4817909;28;103775;-90
2021/09/27 02:25:33;;;;;;;;;15.75;14.50;;;;;19.02;62.25;98734.53;4809717;28;104031;-90
2021/09/27 02:28:02;;;;;;;;;15.50;12.50;;;;;18.99;62.75;98721.34;4828770;28;104378;-90
2021/09/27 02:30:57;;;;;;;;;13.25;12.50;;;;;19.00;62.62;98725.75;4830654;28;102250;-90
2021/09/27 02:33:46;;;;;;;;;14.00;14.00;;;;;19.00;62.84;98728.47;4792268;28;102272;-89
2021/09/27 02:36:21;;;;;;;;;11.67;10.67;;;;;19.00;62.58;98717.53;4836652;28;104134;-90
2021/09/27 02:39:05;;;;;;;;;12.67;12.00;;;;;18.99;62.60;98721.34;4815382;28;102425;-88
2021/09/27 02:41:47;;;;;;;;;11.67;11.67;;;;;18.96;62.52;98719.91;4835248;28;102597;-87
2021/09/27 02:44:14;;;;;;;;;11.67;11.00;;;;;18.95;62.46;98717.44;4812761;28;102645;-88
2021/09/27 02:46:43;;;;;;;;;13.25;13.25;;;;;18.98;61.95;98723.25;4840060;28;104070;-88
2021/09/27 02:49:12;;;;;;;;;12.33;11.67;;;;;19.02;61.71;98709.84;4841937;28;103580;-88
2021/09/27 02:51:41;;;;;;;;;12.50;11.25;;;;;19.01;61.49;98719.16;4837466;28;104456;-87
2021/09/27 02:54:08;;;;;;;;;13.00;13.00;;;;;19.00;61.16;98714.78;4842693;28;102430;-87
2021/09/27 02:56:57;;;;;;;;;11.33;11.00;;;;;18.98;61.71;98705.97;4806663;28;104087;-87
2021/09/27 02:59:49;;;;;;;;;12.67;11.00;;;;;18.96;61.83;98702.63;4828997;28;102190;-87
2021/09/27 03:02:34;;;;;;;;;13.00;12.00;;;;;18.95;62.45;98711.97;4836610;28;103873;-87
2021/09/27 03:05:45;;;;;;;;;12.00;12.00;;;;;18.94;61.56;98704.81;4825921;28;102291;-87
2021/09/27 03:08:30;;;;;;;;;13.00;12.00;;;;;18.91;61.97;98705.34;4760566;29;108625;-87
2021/09/27 03:11:32;;;;;;;;;12.00;12.00;;;;;18.90;62.41;98704.50;4830408;28;102789;-88
2021/09/27 03:14:24;;;;;;;;;12.67;11.33;;;;;18.89;61.92;98705.56;4818553;28;104036;-87
2021/09/27 03:17:12;;;;;;;;;11.67;11.00;;;;;18.90;61.83;98714.63;4841797;28;103295;-87
2021/09/27 03:20:10;;;;;;;;;14.50;12.75;;;;;18.89;62.15;98716.53;4832433;28;108905;-87
2021/09/27 03:23:18;;;;;;;;;11.00;11.00;;;;;18.89;62.06;98710.22;4839026;28;103573;-87
2021/09/27 03:25:57;;;;;;;;;12.00;12.00;;;;;18.87;62.02;98709.63;4827199;28;102495;-87
2021/09/27 03:28:30;;;;;;;;;13.33;12.00;;;;;18.87;61.35;98712.38;4827228;28;102779;-87
2021/09/27 03:31:12;;;;;;;;;15.33;13.00;;;;;18.87;61.44;98709.63;4837987;28;104306;-88
2021/09/27 03:33:47;;;;;;;;;10.00;9.00;;;;;18.88;60.81;98709.38;4820006;28;102704;-87
2021/09/27 03:36:23;;;;;;;;;13.00;12.00;;;;;18.88;61.55;98705.81;4808688;28;102604;-87
2021/09/27 03:39:07;;;;;;;;;11.33;10.67;;;;;18.86;61.68;98702.53;4824563;28;104303;-87
2021/09/27 03:41:39;;;;;;;;;13.33;11.33;;;;;18.85;61.25;98700.84;4799053;28;109257;-87
2021/09/27 03:44:12;;;;;;;;;14.33;13.67;;;;;18.85;61.44;98690.72;4809296;28;102669;-87
2021/09/27 03:46:46;;;;;;;;;14.33;11.33;;;;;18.81;61.01;98696.97;4834037;28;102139;-87
2021/09/27 03:49:17;;;;;;;;;14.00;13.00;;;;;18.81;61.45;98699.69;4832253;28;107201;-87
2021/09/27 03:51:57;;;;;;;;;13.00;12.00;;;;;18.83;61.26;98692.03;4825498;28;104090;-87
2021/09/27 03:54:29;;;;;;;;;10.33;10.00;;;;;18.81;61.74;98695.06;4804838;28;102781;-87
2021/09/27 03:56:59;;;;;;;;;12.00;11.67;;;;;18.81;61.49;98699.69;4816006;28;102461;-87
2021/09/27 03:59:44;;;;;;;;;10.67;9.00;;;;;18.80;60.98;98693.38;4835331;28;102540;-87
2021/09/27 04:02:32;;;;;;;;;12.00;12.00;;;;;18.81;60.70;98688.75;4831957;28;104056;-88
2021/09/27 04:05:03;;;;;;;;;11.33;11.00;;;;;18.83;61.13;98692.88;4833785;28;102237;-87
2021/09/27 04:07:52;;;;;;;;;12.00;12.00;;;;;18.84;60.92;98685.47;4836971;28;102261;-87
2021/09/27 04:10:20;;;;;;;;;11.00;10.33;;;;;18.83;60.74;98692.03;4839472;28;102599;-87
2021/09/27 04:13:17;;;;;;;;;11.00;10.00;;;;;18.89;60.35;98696.53;4822386;28;105172;-87
2021/09/27 04:15:52;;;;;;;;;15.00;12.00;;;;;18.85;59.95;98685.25;4843291;28;102530;-87
2021/09/27 04:18:38;;;;;;;;;10.00;9.33;;;;;18.82;61.04;98683.03;4842430;28;102557;-87
2021/09/27 04:21:09;;;;;;;;;14.67;11.33;;;;;18.82;60.58;98682.19;4833158;28;102784;-86
2021/09/27 04:23:36;;;;;;;;;12.33;11.67;;;;;18.83;60.44;98681.09;4860239;28;104180;-87
2021/09/27 04:26:26;;;;;;;;;12.00;11.00;;;;;18.78;61.21;98679.09;4853193;28;103801;-87
2021/09/27 04:29:11;;;;;;;;;12.33;11.00;;;;;18.80;60.64;98692.56;4857628;28;102179;-90
2021/09/27 04:31:51;;;;;;;;;12.67;11.00;;;;;18.81;60.18;98691.47;4840251;28;102473;-90
2021/09/27 04:34:24;;;;;;;;;13.00;12.25;;;;;18.78;60.33;98689.25;4825487;28;108362;-87
2021/09/27 04:36:52;;;;;;;;;15.00;14.00;;;;;18.81;60.42;98688.75;4850298;28;102769;-87
2021/09/27 04:39:20;;;;;;;;;11.67;11.67;;;;;18.81;60.51;98696.97;4847038;28;103430;-88
2021/09/27 04:42:20;;;;;;;;;13.67;13.00;;;;;18.76;60.42;98696.88;4829849;28;102604;-87
2021/09/27 04:45:01;;;;;;;;;14.00;14.00;;;;;18.77;60.77;98701.28;4853863;28;108632;-87
2021/09/27 04:47:40;;;;;;;;;14.67;13.33;;;;;18.71;60.68;98706.69;4864116;28;102512;-87
2021/09/27 04:50:15;;;;;;;;;14.33;13.00;;;;;18.77;60.72;98710.34;4837040;28;102546;-87
2021/09/27 04:52:48;;;;;;;;;14.00;13.00;;;;;18.79;60.90;98715.53;4852324;28;102475;-87
2021/09/27 04:55:19;;;;;;;;;13.67;13.00;;;;;18.77;60.76;98714.97;4855716;28;104041;-88
2021/09/27 04:58:10;;;;;;;;;12.00;11.00;;;;;18.79;60.63;98713.63;4849610;28;102330;-87
2021/09/27 05:01:08;;;;;;;;;15.33;13.33;;;;;18.76;60.97;98716.06;4831765;28;103689;-88
2021/09/27 05:03:45;;;;;;;;;12.00;11.00;;;;;18.75;60.66;98708.91;4847156;28;102218;-88
2021/09/27 05:06:49;;;;;;;;;13.00;12.00;;;;;18.73;60.69;98718.19;4852622;28;104275;-88
2021/09/27 05:10:13;;;;;;;;;14.33;13.33;;;;;18.73;60.63;98716.56;4827914;28;102925;-89
2021/09/27 05:12:55;;;;;;;;;12.00;11.67;;;;;18.73;60.45;98719.31;4776250;29;103600;-89
2021/09/27 05:15:22;;;;;;;;;13.00;13.00;;;;;18.71;60.76;98717.63;4765843;29;102618;-89
2021/09/27 05:18:01;;;;;;;;;8.00;8.00;;;;;18.69;60.82;98717.03;4836356;28;110748;-88
2021/09/27 05:21:02;;;;;;;;;12.33;11.00;;;;;18.70;61.22;98715.97;4854760;28;102393;-89
2021/09/27 05:23:29;;;;;;;;;15.67;13.67;;;;;18.69;61.26;98721.69;4855648;28;104552;-88
2021/09/27 05:26:08;;;;;;;;;14.00;14.00;;;;;18.69;61.47;98716.22;4865098;28;102964;-89
2021/09/27 05:28:38;;;;;;;;;11.00;11.00;;;;;18.70;61.00;98718.72;4858029;28;104205;-89
2021/09/27 05:31:05;;;;;;;;;14.00;13.00;;;;;18.68;60.93;98718.16;4861394;28;102484;-88
2021/09/27 05:33:38;;;;;;;;;12.25;12.25;;;;;18.70;60.97;98724.19;4863913;28;102896;-88
2021/09/27 05:36:23;;;;;;;;;13.50;13.00;;;;;18.70;61.46;98721.44;4861628;28;102519;-88
2021/09/27 05:39:09;;;;;;;;;14.25;13.25;;;;;18.69;61.09;98722.53;4856661;28;108807;-88
2021/09/27 05:41:57;;;;;;;;;16.00;14.50;;;;;18.71;61.45;98725.03;4855800;28;102644;-89
2021/09/27 05:45:01;;;;;;;;;16.00;14.00;;;;;18.71;61.16;98725.84;4859673;28;102270;-88
2021/09/27 05:47:54;;;;;;;;;14.33;14.00;;;;;18.70;61.48;98721.44;4836679;28;102541;-89
2021/09/27 05:50:45;;;;;;;;;15.67;13.33;;;;;18.71;61.15;98725.03;4841380;28;108921;-88
2021/09/27 05:53:39;;;;;;;;;12.67;11.33;;;;;18.71;61.52;98720.38;4836926;28;103837;-89
2021/09/27 05:56:14;;;;;;;;;15.00;14.33;;;;;18.71;61.57;98722.28;4840546;28;102569;-89
2021/09/27 05:59:10;;;;;;;;;15.33;12.67;;;;;18.70;61.32;98717.88;4834424;28;102604;-89
2021/09/27 06:01:37;;;;;;;;;15.33;14.00;;;;;18.70;61.58;98726.09;4826336;28;108536;-88
2021/09/27 06:04:23;;;;;;;;;14.67;14.67;;;;;18.72;61.69;98718.47;4861516;28;105434;-89
2021/09/27 06:07:05;;;;;;;;;15.67;13.33;;;;;18.71;61.42;98727.75;4849591;28;102568;-89
2021/09/27 06:09:53;;;;;;;;;16.25;13.00;;;;;18.72;61.98;98740.38;4821389;28;103943;-88
2021/09/27 06:12:52;;;;;;;;;18.00;16.00;;;;;18.73;61.80;98727.53;4855434;28;110835;-88
2021/09/27 06:15:19;;;;;;;;;18.25;17.00;;;;;18.72;61.70;98734.91;4837653;28;102601;-89
2021/09/27 06:18:32;;;;;;;;;16.25;15.75;;;;;18.69;61.87;98725.25;4849293;28;102724;-89
2021/09/27 06:21:18;;;;;;;;;16.00;15.25;;;;;18.70;61.93;98729.66;4812420;28;102852;-89
2021/09/27 06:23:58;;;;;;;;;17.50;17.50;;;;;18.70;62.16;98726.94;4853143;28;104047;-88
2021/09/27 06:26:28;;;;;;;;;13.75;12.25;;;;;18.71;61.72;98723.13;4857891;28;104948;-86
2021/09/27 06:29:07;;;;;;;;;16.00;15.00;;;;;18.73;61.70;98726.41;4834114;28;102506;-90
2021/09/27 06:32:02;;;;;;;;;15.00;14.33;;;;;18.73;62.19;98724.78;4852980;28;102231;-90
2021/09/27 06:34:52;;;;;;;;;15.00;14.00;;;;;18.71;62.88;98720.38;4807724;28;109096;-90
2021/09/27 06:37:20;;;;;;;;;17.00;15.25;;;;;18.72;62.98;98713.00;4841667;28;102555;-89
2021/09/27 06:39:47;;;;;;;;;17.25;16.50;;;;;18.73;62.47;98723.69;4832944;28;102600;-89
2021/09/27 06:42:14;;;;;;;;;19.00;18.25;;;;;18.74;62.75;98719.03;4850945;28;102631;-90
2021/09/27 06:44:44;;;;;;;;;17.67;17.00;;;;;18.73;62.93;98719.31;4862610;28;104079;-90
2021/09/27 06:47:13;;;;;;;;;18.75;17.00;;;;;18.75;62.63;98722.59;4852563;28;102324;-89
2021/09/27 06:49:40;;;;;;;;;18.50;16.75;;;;;18.75;62.33;98719.88;4855976;28;102357;-90
2021/09/27 06:52:07;;;;;;;;;16.75;16.00;;;;;18.75;63.14;98715.22;4852600;28;103792;-90
2021/09/27 06:54:34;;;;;;;;;20.50;17.00;;;;;18.77;62.88;98721.28;4847283;28;103742;-90
2021/09/27 06:57:01;;;;;;;;;22.00;20.00;;;;;18.78;63.22;98727.59;4859871;28;103056;-90
2021/09/27 06:59:28;;;;;;;;;22.50;17.50;;;;;18.77;62.83;98721.28;4857755;28;102630;-90
2021/09/27 07:02:17;;;;;;;;;17.00;15.75;;;;;18.79;62.89;98716.38;4850971;28;102538;-89
2021/09/27 07:04:45;;;;;;;;;20.25;16.75;;;;;18.80;62.92;98725.44;4853529;28;104043;-90
2021/09/27 07:07:12;;;;;;;;;16.75;16.00;;;;;18.80;63.39;98728.16;4860253;28;102531;-89
2021/09/27 07:09:39;;;;;;;;;18.75;17.00;;;;;18.80;62.57;98728.16;4852694;28;102585;-90
2021/09/27 07:12:06;;;;;;;;;20.75;15.75;;;;;18.80;62.80;98726.25;4855123;28;104476;-90
2021/09/27 07:14:34;;;;;;;;;18.50;17.00;;;;;18.79;62.92;98719.13;4846112;28;104078;-90
2021/09/27 07:17:01;;;;;;;;;21.25;19.00;;;;;18.79;63.52;98712.81;4838701;28;103468;-90
2021/09/27 07:19:28;;;;;;;;;20.25;19.75;;;;;18.77;62.98;98712.25;4843022;28;102013;-90
2021/09/27 07:21:55;;;;;;;;;20.75;17.75;;;;;18.80;63.02;98719.94;4847776;28;102747;-90
2021/09/27 07:24:24;;;;;;;;;19.00;16.25;;;;;18.80;62.84;98715.31;4837498;28;108366;-90
2021/09/27 07:26:51;;;;;;;;;18.50;17.25;;;;;18.82;62.59;98718.63;4838830;28;102475;-89
2021/09/27 07:29:18;;;;;;;;;15.50;15.25;;;;;18.82;63.30;98712.31;4842453;28;102545;-90
2021/09/27 07:31:45;;;;;;;;;19.50;17.00;;;;;18.85;63.21;98718.13;4839860;28;102801;-90
2021/09/27 07:34:12;;;;;;;;;19.50;18.00;;;;;18.86;63.04;98725.28;4841562;28;104885;-90
2021/09/27 07:36:39;;;;;;;;;16.00;15.75;;;;;18.86;62.76;98714.31;4843434;28;102582;-90
2021/09/27 07:39:06;;;;;;;;;21.00;17.00;;;;;18.88;63.35;98716.78;4837983;28;102658;-90
2021/09/27 07:41:33;;;;;;;;;19.75;17.00;;;;;18.90;62.88;98714.63;4845443;28;102846;-90
2021/09/27 07:44:01;;;;;;;;;15.00;12.00;;;;;18.89;63.33;98712.97;4840589;28;104557;-90
2021/09/27 07:46:28;;;;;;;;;16.00;14.67;;;;;18.91;63.32;98717.09;4835062;28;102527;-90
2021/09/27 07:48:55;;;;;;;;;18.00;17.25;;;;;18.92;62.78;98717.94;4847567;28;102526;-90
2021/09/27 07:51:23;;;;;;;;;14.67;13.67;;;;;18.92;62.95;98723.41;4838824;28;102565;-90
2021/09/27 07:53:49;;;;;;;;;15.00;14.00;;;;;18.91;63.40;98719.03;4828850;28;104110;-90
2021/09/27 07:56:17;;;;;;;;;16.00;15.00;;;;;18.93;63.25;98711.38;4837945;28;102343;-90
2021/09/27 07:58:44;;;;;;;;;13.75;13.50;;;;;18.94;63.18;98721.25;4840419;28;102695;-90
2021/09/27 08:01:13;;;;;;;;;17.50;17.00;;;;;18.95;63.45;98720.19;4823770;28;102670;-90
2021/09/27 08:03:41;;;;;;;;;18.50;17.00;;;;;18.94;63.28;98722.09;4834576;28;103862;-90
2021/09/27 08:06:08;;;;;;;;;17.33;15.00;;;;;18.93;63.35;98717.69;4824992;28;112484;-90
2021/09/27 08:08:35;;;;;;;;;18.33;18.33;;;;;18.96;63.54;98719.06;4834156;28;102579;-90
2021/09/27 08:11:02;;;;;;;;;18.00;16.50;;;;;18.97;63.21;98715.25;4841677;28;102781;-90
2021/09/27 08:13:29;;;;;;;;;18.25;14.75;;;;;18.97;63.37;98718.84;4838676;28;104098;-90
2021/09/27 08:15:56;;;;;;;;;15.00;14.00;;;;;19.00;63.07;98720.25;4857406;28;102301;-90
2021/09/27 08:18:23;;;;;;;;;18.75;17.00;;;;;19.00;63.03;98723.00;4855450;28;104332;-90
2021/09/27 08:20:59;;;;;;;;;14.00;13.67;;;;;19.02;63.00;98712.59;4851775;28;103853;-90
2021/09/27 08:23:26;;;;;;;;;16.33;14.00;;;;;19.02;63.12;98720.81;4849679;28;108926;-90
2021/09/27 08:25:53;;;;;;;;;15.75;15.75;;;;;19.03;62.86;98720.59;4844351;28;102296;-90
2021/09/27 08:28:22;;;;;;;;;17.00;17.00;;;;;19.03;62.95;98726.06;4847781;28;103014;-90
2021/09/27 08:30:55;;;;;;;;;15.33;15.00;;;;;19.06;62.97;98720.06;4841777;28;104299;-90
2021/09/27 08:33:22;;;;;;;;;17.00;14.67;;;;;19.06;62.96;98719.22;4833587;28;104066;-90
2021/09/27 08:35:50;;;;;;;;;17.00;14.00;;;;;19.07;62.79;98723.63;4844856;28;102982;-90
2021/09/27 08:38:18;;;;;;;;;15.33;14.00;;;;;19.08;63.07;98722.56;4847454;28;102277;-90
2021/09/27 08:40:47;;;;;;;;;13.00;13.00;;;;;19.10;62.77;98731.34;4844385;28;102494;-90
2021/09/27 08:43:23;;;;;;;;;17.75;14.75;;;;;19.12;63.09;98727.28;4829012;28;106759;-90
2021/09/27 08:45:50;;;;;;;;;17.67;14.67;;;;;19.10;63.12;98721.22;4819500;28;102677;-90
2021/09/27 08:48:36;;;;;;;;;15.00;14.00;;;;;19.14;63.04;98729.75;4829032;28;102235;-90
2021/09/27 08:51:03;;;;;;;;;17.00;15.25;;;;;19.15;62.71;98725.94;4833822;28;102389;-90
2021/09/27 08:53:32;;;;;;;;;16.75;14.75;;;;;19.18;63.17;98725.44;4846373;28;104120;-89
2021/09/27 08:56:25;;;;;;;;;15.00;14.00;;;;;19.20;62.44;98728.75;4842570;28;102691;-89
2021/09/27 08:59:06;;;;;;;;;17.67;15.33;;;;;19.23;62.85;98722.75;4804420;28;103717;-90
2021/09/27 09:01:45;;;;;;;;;16.33;15.67;;;;;19.25;62.95;98723.34;4839368;28;102214;-88
2021/09/27 09:04:21;;;;;;;;;15.33;14.67;;;;;19.24;62.95;98726.31;4864052;28;104245;-88
2021/09/27 09:06:53;;;;;;;;;18.75;17.00;;;;;19.25;63.51;98720.59;4838165;28;102444;-88
2021/09/27 09:09:26;;;;;;;;;16.75;15.25;;;;;19.26;63.33;98722.28;4835336;28;103715;-88
2021/09/27 09:11:58;;;;;;;;;20.00;14.50;;;;;19.26;63.27;98719.53;4844971;28;102603;-88
2021/09/27 09:14:46;;;;;;;;;16.00;15.33;;;;;19.27;62.77;98726.69;4809594;28;107796;-88
2021/09/27 09:17:35;;;;;;;;;19.00;17.67;;;;;19.28;63.26;98717.34;4831800;28;102860;-88
2021/09/27 09:20:22;;;;;;;;;14.67;13.33;;;;;19.30;63.31;98722.59;4828392;28;102842;-88
2021/09/27 09:22:49;;;;;;;;;16.75;16.75;;;;;19.30;63.35;98717.09;4843198;28;102503;-88
2021/09/27 09:25:22;;;;;;;;;16.00;16.00;;;;;19.31;63.14;98716.84;4835258;28;104097;-88
2021/09/27 09:27:49;;;;;;;;;15.00;14.67;;;;;19.31;63.50;98710.53;4826338;28;105276;-88
2021/09/27 09:30:16;;;;;;;;;15.75;15.75;;;;;19.31;63.31;98716.84;4840076;28;102639;-88
2021/09/27 09:32:43;;;;;;;;;14.33;13.67;;;;;19.31;63.46;98705.06;4802629;28;102788;-88
2021/09/27 09:35:23;;;;;;;;;16.33;15.00;;;;;19.33;63.60;98700.13;4832743;28;104115;-88
2021/09/27 09:38:04;;;;;;;;;13.33;12.33;;;;;19.33;63.72;98711.94;4844321;28;102442;-88
2021/09/27 09:40:52;;;;;;;;;16.00;15.00;;;;;19.33;63.71;98700.13;4834881;28;102022;-88
2021/09/27 09:43:33;;;;;;;;;17.67;16.67;;;;;19.34;63.60;98701.78;4836143;28;103496;-88
2021/09/27 09:46:32;;;;;;;;;12.00;12.00;;;;;19.34;63.86;98705.38;4833178;28;109182;-87
2021/09/27 09:49:07;;;;;;;;;15.33;14.00;;;;;19.34;63.60;98699.88;4835516;28;102695;-88
2021/09/27 09:51:39;;;;;;;;;17.00;13.00;;;;;19.34;64.06;98691.66;4837441;28;103699;-88
2021/09/27 09:54:18;;;;;;;;;15.00;14.00;;;;;19.33;63.77;98692.72;4837728;28;102628;-88
2021/09/27 09:57:01;;;;;;;;;16.00;15.00;;;;;19.34;63.88;98688.91;4841459;28;104902;-88
2021/09/27 09:59:36;;;;;;;;;16.33;14.67;;;;;19.33;64.07;98687.25;4847684;28;102395;-88
2021/09/27 10:02:07;;;;;;;;;16.50;16.00;;;;;19.33;64.06;98692.72;4832153;28;102519;-87
2021/09/27 10:04:39;;;;;;;;;9.00;7.67;;;;;19.35;64.31;98693.31;4832881;28;102805;-88
2021/09/27 10:07:14;;;;;;;;;15.33;14.00;;;;;19.36;64.31;98694.94;4820612;28;104829;-88
2021/09/27 10:10:10;;;;;;;;;17.00;15.00;;;;;19.37;64.30;98688.41;4805537;28;103198;-88
2021/09/27 10:12:43;;;;;;;;;15.67;14.00;;;;;19.39;64.40;98688.97;4823989;28;102690;-88
2021/09/27 10:15:34;;;;;;;;;16.00;13.33;;;;;19.41;64.32;98685.97;4845850;28;104317;-88
2021/09/27 10:18:24;;;;;;;;;15.00;13.33;;;;;19.41;64.30;98678.56;4833545;28;109068;-88
2021/09/27 10:21:12;;;;;;;;;15.67;15.00;;;;;19.44;64.25;98682.75;4837167;28;102433;-88
2021/09/27 10:23:47;;;;;;;;;11.00;10.00;;;;;19.42;64.14;98674.75;4840289;28;102227;-88
2021/09/27 10:26:25;;;;;;;;;11.00;10.00;;;;;19.43;64.26;98673.69;4790687;28;103216;-88
2021/09/27 10:28:53;;;;;;;;;10.67;10.33;;;;;19.44;64.58;98674.53;4822209;28;104000;-88
2021/09/27 10:31:21;;;;;;;;;16.00;14.00;;;;;19.44;64.53;98678.09;4839070;28;104304;-88
2021/09/27 10:33:54;;;;;;;;;16.67;15.33;;;;;19.45;64.71;98674.25;4838969;28;102168;-88
2021/09/27 10:36:28;;;;;;;;;13.00;10.00;;;;;19.46;64.42;98673.19;4841937;28;102262;-88
2021/09/27 10:38:58;;;;;;;;;18.00;13.67;;;;;19.46;65.26;98664.94;4839314;28;104339;-87
2021/09/27 10:41:30;;;;;;;;;13.00;12.67;;;;;19.48;64.82;98670.19;4843655;28;102180;-88
2021/09/27 10:44:01;;;;;;;;;13.00;12.00;;;;;19.49;64.46;98672.69;4810261;28;102333;-88
2021/09/27 10:46:32;;;;;;;;;12.67;12.00;;;;;19.51;64.36;98672.41;4826356;28;102512;-88
2021/09/27 10:48:59;;;;;;;;;11.00;11.00;;;;;19.52;64.83;98671.31;4832298;28;109123;-88
2021/09/27 10:51:35;;;;;;;;;12.00;11.00;;;;;19.53;64.64;98662.84;4805299;28;102237;-88
2021/09/27 10:54:34;;;;;;;;;13.33;13.00;;;;;19.54;64.38;98672.72;4807867;28;102714;-88
2021/09/27 10:57:02;;;;;;;;;10.00;10.00;;;;;19.58;63.82;98667.56;4843141;28;102268;-88
2021/09/27 10:59:35;;;;;;;;;9.67;9.33;;;;;19.58;64.47;98668.41;4796162;28;109014;-89
2021/09/27 11:02:19;;;;;;;;;15.00;13.33;;;;;19.59;64.40;98669.19;4835935;28;102489;-88
2021/09/27 11:04:46;;;;;;;;;13.00;13.00;;;;;19.60;64.22;98662.63;4843068;28;105336;-88
2021/09/27 11:07:24;;;;;;;;;15.00;12.00;;;;;19.62;64.36;98663.22;4809927;28;102825;-88
2021/09/27 11:09:53;;;;;;;;;10.67;10.33;;;;;19.61;64.91;98656.06;4821852;28;104055;-88
2021/09/27 11:12:23;;;;;;;;;13.33;11.00;;;;;19.63;64.96;98669.53;4825979;28;102732;-88
2021/09/27 11:15:01;;;;;;;;;12.67;11.67;;;;;19.64;64.65;98658.28;4842385;28;102856;-88
2021/09/27 11:17:32;;;;;;;;;11.67;9.67;;;;;19.67;64.56;98665.19;4836633;28;102448;-88
2021/09/27 11:20:06;;;;;;;;;14.67;12.67;;;;;19.66;64.52;98658.03;4835758;28;109080;-88
2021/09/27 11:22:38;;;;;;;;;11.33;11.33;;;;;19.67;65.03;98663.28;4821107;28;102751;-88
2021/09/27 11:25:28;;;;;;;;;14.33;11.00;;;;;19.68;65.31;98661.38;4827831;28;103614;-88
2021/09/27 11:28:07;;;;;;;;;11.67;10.33;;;;;19.69;65.10;98652.84;4802746;28;102718;-88
2021/09/27 11:30:49;;;;;;;;;12.00;12.00;;;;;19.70;64.74;98661.94;4824008;28;108831;-88
2021/09/27 11:33:39;;;;;;;;;12.33;11.67;;;;;19.72;64.76;98662.50;4828380;28;102644;-88
2021/09/27 11:36:18;;;;;;;;;12.00;11.00;;;;;19.75;64.75;98661.97;4801663;28;102626;-88
2021/09/27 11:38:46;;;;;;;;;14.00;11.33;;;;;19.76;64.71;98663.66;4835240;28;102730;-89
2021/09/27 11:41:13;;;;;;;;;11.00;11.00;;;;;19.77;64.35;98651.59;4825641;28;104080;-88
2021/09/27 11:44:13;;;;;;;;;14.33;14.00;;;;;19.79;64.78;98657.63;4818552;28;104059;-88
2021/09/27 11:47:06;;;;;;;;;11.67;10.00;;;;;19.79;65.01;98646.66;4816259;28;103385;-88
2021/09/27 11:49:59;;;;;;;;;16.00;12.33;;;;;19.78;65.13;98647.72;4798754;28;102835;-88
2021/09/27 11:52:27;;;;;;;;;9.67;9.67;;;;;19.80;65.18;98648.31;4838928;28;104045;-88
2021/09/27 11:55:07;;;;;;;;;11.50;11.00;;;;;19.80;65.31;98643.66;4829853;28;102427;-89